Аэропорт: Могилёв. Могилёв

ICAO: UMOO

METAR:
Информация по данной станции не доступна
METAR:
2019-07-23 11:00:00
TAF UMOO 231100Z 2312/2321 36005G10MPS 9999 BKN020 TEMPO 2312/2321 VRB14MPS 1200 TSRA SQ BKN004 BKN020CB